sensor_id;sensor_type;location;lat;lon;timestamp;pressure;altitude;pressure_sealevel;temperature;humidity
20009;BME280;10165;42.662;23.260;2023-03-22T00:01:53;93769.50;;;12.02;73.48
20009;BME280;10165;42.662;23.260;2023-03-22T00:04:19;93760.88;;;12.16;72.88
20009;BME280;10165;42.662;23.260;2023-03-22T00:06:46;93762.91;;;12.22;72.14
20009;BME280;10165;42.662;23.260;2023-03-22T00:09:13;93767.25;;;12.08;72.51
20009;BME280;10165;42.662;23.260;2023-03-22T00:11:39;93763.16;;;12.14;72.72
20009;BME280;10165;42.662;23.260;2023-03-22T00:14:06;93760.53;;;12.47;72.17
20009;BME280;10165;42.662;23.260;2023-03-22T00:16:33;93761.34;;;12.51;71.43
20009;BME280;10165;42.662;23.260;2023-03-22T00:19:00;93770.38;;;12.39;71.38
20009;BME280;10165;42.662;23.260;2023-03-22T00:21:27;93760.09;;;12.41;71.99
20009;BME280;10165;42.662;23.260;2023-03-22T00:23:54;93763.28;;;12.54;71.34
20009;BME280;10165;42.662;23.260;2023-03-22T00:26:20;93763.47;;;12.38;71.66
20009;BME280;10165;42.662;23.260;2023-03-22T00:28:47;93763.97;;;12.18;72.29
20009;BME280;10165;42.662;23.260;2023-03-22T00:31:14;93759.75;;;12.17;72.86
20009;BME280;10165;42.662;23.260;2023-03-22T00:33:41;93754.31;;;12.10;73.49
20009;BME280;10165;42.662;23.260;2023-03-22T00:36:10;93759.97;;;12.05;73.62
20009;BME280;10165;42.662;23.260;2023-03-22T00:38:37;93752.97;;;11.96;73.61
20009;BME280;10165;42.662;23.260;2023-03-22T00:41:10;93757.28;;;11.78;74.76
20009;BME280;10165;42.662;23.260;2023-03-22T00:43:38;93755.59;;;11.70;75.12
20009;BME280;10165;42.662;23.260;2023-03-22T00:46:05;93752.09;;;11.66;75.42
20009;BME280;10165;42.662;23.260;2023-03-22T00:48:32;93749.34;;;11.85;74.84
20009;BME280;10165;42.662;23.260;2023-03-22T00:50:58;93743.50;;;11.76;74.99
20009;BME280;10165;42.662;23.260;2023-03-22T00:53:25;93755.72;;;11.77;74.99
20009;BME280;10165;42.662;23.260;2023-03-22T00:55:56;93754.81;;;11.70;74.82
20009;BME280;10165;42.662;23.260;2023-03-22T00:58:23;93748.03;;;11.49;76.24
20009;BME280;10165;42.662;23.260;2023-03-22T01:00:49;93744.75;;;11.60;75.71
20009;BME280;10165;42.662;23.260;2023-03-22T01:03:17;93750.19;;;11.67;75.26
20009;BME280;10165;42.662;23.260;2023-03-22T01:05:44;93746.78;;;11.43;76.06
20009;BME280;10165;42.662;23.260;2023-03-22T01:08:11;93746.69;;;11.85;75.36
20009;BME280;10165;42.662;23.260;2023-03-22T01:10:39;93742.69;;;11.98;74.46
20009;BME280;10165;42.662;23.260;2023-03-22T01:13:07;93738.78;;;11.96;73.98
20009;BME280;10165;42.662;23.260;2023-03-22T01:15:34;93741.31;;;12.12;73.69
20009;BME280;10165;42.662;23.260;2023-03-22T01:18:02;93737.25;;;12.21;72.98
20009;BME280;10165;42.662;23.260;2023-03-22T01:20:29;93736.81;;;11.89;73.32
20009;BME280;10165;42.662;23.260;2023-03-22T01:22:57;93735.69;;;11.68;74.56
20009;BME280;10165;42.662;23.260;2023-03-22T01:25:23;93740.00;;;11.72;74.88
20009;BME280;10165;42.662;23.260;2023-03-22T01:27:50;93737.16;;;11.65;74.85
20009;BME280;10165;42.662;23.260;2023-03-22T01:30:17;93739.56;;;11.70;75.16
20009;BME280;10165;42.662;23.260;2023-03-22T01:32:44;93730.97;;;11.80;74.48
20009;BME280;10165;42.662;23.260;2023-03-22T01:35:11;93727.66;;;11.90;74.17
20009;BME280;10165;42.662;23.260;2023-03-22T01:37:37;93727.28;;;11.20;76.71
20009;BME280;10165;42.662;23.260;2023-03-22T01:40:05;93724.38;;;11.51;76.37
20009;BME280;10165;42.662;23.260;2023-03-22T01:42:32;93718.31;;;11.81;75.36
20009;BME280;10165;42.662;23.260;2023-03-22T01:47:45;93721.94;;;11.43;75.57
20009;BME280;10165;42.662;23.260;2023-03-22T01:50:14;93728.53;;;11.49;76.32
20009;BME280;10165;42.662;23.260;2023-03-22T01:52:43;93723.97;;;11.72;75.61
20009;BME280;10165;42.662;23.260;2023-03-22T01:55:10;93727.03;;;11.74;74.73
20009;BME280;10165;42.662;23.260;2023-03-22T01:57:38;93722.06;;;11.04;76.73
20009;BME280;10165;42.662;23.260;2023-03-22T02:00:09;93722.44;;;11.03;77.89
20009;BME280;10165;42.662;23.260;2023-03-22T02:02:39;93722.19;;;11.34;76.90
20009;BME280;10165;42.662;23.260;2023-03-22T02:05:06;93720.66;;;11.33;75.51
20009;BME280;10165;42.662;23.260;2023-03-22T02:07:36;93723.72;;;11.35;75.76
20009;BME280;10165;42.662;23.260;2023-03-22T02:10:03;93719.09;;;11.81;74.06
20009;BME280;10165;42.662;23.260;2023-03-22T02:15:24;93722.72;;;11.70;73.52
20009;BME280;10165;42.662;23.260;2023-03-22T02:28:46;93728.63;;;11.07;76.53
20009;BME280;10165;42.662;23.260;2023-03-22T02:44:43;93739.00;;;11.35;75.62
20009;BME280;10165;42.662;23.260;2023-03-22T02:50:29;93734.38;;;11.81;74.20
20009;BME280;10165;42.662;23.260;2023-03-22T02:53:16;93745.16;;;12.11;72.53
20009;BME280;10165;42.662;23.260;2023-03-22T02:55:52;93745.63;;;12.20;71.11
20009;BME280;10165;42.662;23.260;2023-03-22T03:01:02;93738.34;;;12.50;70.03
20009;BME280;10165;42.662;23.260;2023-03-22T03:03:32;93739.41;;;12.42;69.37
20009;BME280;10165;42.662;23.260;2023-03-22T03:06:04;93739.81;;;12.44;69.99
20009;BME280;10165;42.662;23.260;2023-03-22T03:08:34;93742.50;;;12.44;70.02
20009;BME280;10165;42.662;23.260;2023-03-22T03:11:02;93741.38;;;12.45;69.64
20009;BME280;10165;42.662;23.260;2023-03-22T03:13:29;93742.31;;;12.60;69.50
20009;BME280;10165;42.662;23.260;2023-03-22T03:15:57;93743.09;;;12.60;69.28
20009;BME280;10165;42.662;23.260;2023-03-22T03:24:19;93746.56;;;12.34;68.34
20009;BME280;10165;42.662;23.260;2023-03-22T03:29:43;93749.22;;;11.52;71.40
20009;BME280;10165;42.662;23.260;2023-03-22T03:32:16;93745.31;;;11.95;70.45
20009;BME280;10165;42.662;23.260;2023-03-22T03:37:19;93755.38;;;12.05;69.28
20009;BME280;10165;42.662;23.260;2023-03-22T03:39:54;93755.03;;;12.07;69.42
20009;BME280;10165;42.662;23.260;2023-03-22T03:42:25;93755.44;;;11.60;71.52
20009;BME280;10165;42.662;23.260;2023-03-22T03:44:54;93756.94;;;11.57;72.81
20009;BME280;10165;42.662;23.260;2023-03-22T03:47:22;93753.16;;;11.84;71.86
20009;BME280;10165;42.662;23.260;2023-03-22T03:49:49;93759.09;;;11.97;70.00
20009;BME280;10165;42.662;23.260;2023-03-22T03:52:17;93766.38;;;11.51;71.82
20009;BME280;10165;42.662;23.260;2023-03-22T03:54:44;93764.09;;;11.49;72.56
20009;BME280;10165;42.662;23.260;2023-03-22T03:57:11;93774.13;;;11.79;72.22
20009;BME280;10165;42.662;23.260;2023-03-22T03:59:37;93768.19;;;11.92;70.83
20009;BME280;10165;42.662;23.260;2023-03-22T04:02:04;93765.38;;;11.36;72.54
20009;BME280;10165;42.662;23.260;2023-03-22T04:04:31;93764.38;;;11.22;73.69
20009;BME280;10165;42.662;23.260;2023-03-22T04:07:02;93763.72;;;11.51;73.43
20009;BME280;10165;42.662;23.260;2023-03-22T04:09:35;93774.81;;;11.08;74.27
20009;BME280;10165;42.662;23.260;2023-03-22T04:12:02;93772.63;;;10.52;77.14
20009;BME280;10165;42.662;23.260;2023-03-22T04:14:29;93785.09;;;10.86;76.75
20009;BME280;10165;42.662;23.260;2023-03-22T04:16:56;93790.72;;;11.23;75.16
20009;BME280;10165;42.662;23.260;2023-03-22T04:19:22;93781.47;;;11.17;75.03
20009;BME280;10165;42.662;23.260;2023-03-22T04:21:49;93785.16;;;11.32;74.94
20009;BME280;10165;42.662;23.260;2023-03-22T04:24:20;93770.66;;;11.56;73.65
20009;BME280;10165;42.662;23.260;2023-03-22T04:26:47;93775.19;;;11.29;74.11
20009;BME280;10165;42.662;23.260;2023-03-22T04:29:14;93777.97;;;11.36;73.12
20009;BME280;10165;42.662;23.260;2023-03-22T04:31:41;93775.56;;;11.08;74.73
20009;BME280;10165;42.662;23.260;2023-03-22T04:34:08;93773.81;;;11.38;73.16
20009;BME280;10165;42.662;23.260;2023-03-22T04:36:36;93775.84;;;11.45;72.54
20009;BME280;10165;42.662;23.260;2023-03-22T04:39:07;93779.75;;;11.51;71.80
20009;BME280;10165;42.662;23.260;2023-03-22T04:41:35;93785.59;;;11.34;72.20
20009;BME280;10165;42.662;23.260;2023-03-22T04:44:04;93791.50;;;11.69;71.81
20009;BME280;10165;42.662;23.260;2023-03-22T04:46:33;93787.44;;;11.75;70.99
20009;BME280;10165;42.662;23.260;2023-03-22T04:49:00;93792.94;;;11.63;71.27
20009;BME280;10165;42.662;23.260;2023-03-22T04:51:27;93793.44;;;11.69;71.66
20009;BME280;10165;42.662;23.260;2023-03-22T04:53:54;93794.38;;;11.57;71.73
20009;BME280;10165;42.662;23.260;2023-03-22T04:56:21;93798.25;;;11.82;71.14
20009;BME280;10165;42.662;23.260;2023-03-22T04:58:47;93803.34;;;11.68;70.65
20009;BME280;10165;42.662;23.260;2023-03-22T05:01:16;93797.44;;;11.14;72.02
20009;BME280;10165;42.662;23.260;2023-03-22T05:03:44;93806.56;;;11.55;71.65
20009;BME280;10165;42.662;23.260;2023-03-22T05:06:13;93800.44;;;11.77;71.20
20009;BME280;10165;42.662;23.260;2023-03-22T05:08:40;93800.56;;;11.84;70.84
20009;BME280;10165;42.662;23.260;2023-03-22T05:11:10;93803.22;;;12.07;70.04
20009;BME280;10165;42.662;23.260;2023-03-22T05:13:37;93808.19;;;12.08;69.59
20009;BME280;10165;42.662;23.260;2023-03-22T05:16:05;93803.00;;;12.19;68.80
20009;BME280;10165;42.662;23.260;2023-03-22T05:18:32;93806.34;;;12.12;68.60
20009;BME280;10165;42.662;23.260;2023-03-22T05:20:59;93815.88;;;12.10;68.93
20009;BME280;10165;42.662;23.260;2023-03-22T05:23:29;93811.03;;;12.19;68.80
20009;BME280;10165;42.662;23.260;2023-03-22T05:25:56;93818.16;;;11.62;69.53
20009;BME280;10165;42.662;23.260;2023-03-22T05:28:23;93818.97;;;11.01;72.86
20009;BME280;10165;42.662;23.260;2023-03-22T05:30:52;93817.69;;;11.34;73.18
20009;BME280;10165;42.662;23.260;2023-03-22T05:33:22;93819.59;;;11.56;72.02
20009;BME280;10165;42.662;23.260;2023-03-22T05:35:49;93818.31;;;11.27;72.47
20009;BME280;10165;42.662;23.260;2023-03-22T05:38:16;93823.72;;;11.31;72.74
20009;BME280;10165;42.662;23.260;2023-03-22T05:44:30;93823.09;;;10.95;74.57
20009;BME280;10165;42.662;23.260;2023-03-22T05:46:57;93825.75;;;11.37;74.22
20009;BME280;10165;42.662;23.260;2023-03-22T05:49:24;93829.91;;;11.35;73.89
20009;BME280;10165;42.662;23.260;2023-03-22T05:51:52;93828.19;;;11.46;73.95
20009;BME280;10165;42.662;23.260;2023-03-22T05:54:18;93831.50;;;11.39;73.96
20009;BME280;10165;42.662;23.260;2023-03-22T05:56:45;93836.81;;;11.59;73.62
20009;BME280;10165;42.662;23.260;2023-03-22T05:59:12;93839.47;;;11.59;73.21
20009;BME280;10165;42.662;23.260;2023-03-22T06:01:39;93843.94;;;11.51;73.96
20009;BME280;10165;42.662;23.260;2023-03-22T06:04:06;93844.34;;;11.30;74.46
20009;BME280;10165;42.662;23.260;2023-03-22T06:06:33;93842.91;;;11.78;73.70
20009;BME280;10165;42.662;23.260;2023-03-22T06:09:01;93854.41;;;11.60;73.29
20009;BME280;10165;42.662;23.260;2023-03-22T06:11:42;93847.88;;;11.57;74.52
20009;BME280;10165;42.662;23.260;2023-03-22T06:14:09;93851.75;;;11.60;73.88
20009;BME280;10165;42.662;23.260;2023-03-22T06:16:35;93853.22;;;11.57;73.38
20009;BME280;10165;42.662;23.260;2023-03-22T06:19:02;93852.16;;;11.84;72.45
20009;BME280;10165;42.662;23.260;2023-03-22T06:21:29;93849.50;;;11.84;72.75
20009;BME280;10165;42.662;23.260;2023-03-22T06:23:56;93852.25;;;11.88;71.53
20009;BME280;10165;42.662;23.260;2023-03-22T06:26:22;93856.78;;;11.84;71.57
20009;BME280;10165;42.662;23.260;2023-03-22T06:28:49;93848.00;;;12.10;71.00
20009;BME280;10165;42.662;23.260;2023-03-22T06:31:16;93850.09;;;11.97;70.29
20009;BME280;10165;42.662;23.260;2023-03-22T06:33:43;93852.16;;;11.84;70.17
20009;BME280;10165;42.662;23.260;2023-03-22T06:36:10;93858.06;;;11.93;71.33
20009;BME280;10165;42.662;23.260;2023-03-22T06:38:37;93849.69;;;11.95;71.85
20009;BME280;10165;42.662;23.260;2023-03-22T06:41:04;93868.47;;;11.76;71.35
20009;BME280;10165;42.662;23.260;2023-03-22T06:43:31;93869.19;;;11.95;71.85
20009;BME280;10165;42.662;23.260;2023-03-22T06:45:57;93861.56;;;11.97;71.45
20009;BME280;10165;42.662;23.260;2023-03-22T06:48:24;93866.91;;;11.97;70.70
20009;BME280;10165;42.662;23.260;2023-03-22T06:50:51;93868.69;;;12.13;71.69
20009;BME280;10165;42.662;23.260;2023-03-22T06:53:17;93869.03;;;12.11;70.79
20009;BME280;10165;42.662;23.260;2023-03-22T06:55:44;93876.47;;;12.21;71.11
20009;BME280;10165;42.662;23.260;2023-03-22T06:58:11;93874.09;;;12.16;71.42
20009;BME280;10165;42.662;23.260;2023-03-22T07:00:38;93880.06;;;12.06;71.26
20009;BME280;10165;42.662;23.260;2023-03-22T07:03:05;93878.16;;;12.07;71.03
20009;BME280;10165;42.662;23.260;2023-03-22T07:05:32;93882.09;;;11.90;71.16
20009;BME280;10165;42.662;23.260;2023-03-22T07:07:58;93891.78;;;11.75;70.97
20009;BME280;10165;42.662;23.260;2023-03-22T07:10:25;93892.31;;;11.84;68.70
20009;BME280;10165;42.662;23.260;2023-03-22T07:12:52;93884.75;;;12.13;69.21
20009;BME280;10165;42.662;23.260;2023-03-22T07:15:18;93886.47;;;12.24;68.54
20009;BME280;10165;42.662;23.260;2023-03-22T07:17:50;93885.09;;;12.34;68.15
20009;BME280;10165;42.662;23.260;2023-03-22T07:20:18;93889.91;;;12.25;68.74
20009;BME280;10165;42.662;23.260;2023-03-22T07:22:45;93894.66;;;12.35;68.32
20009;BME280;10165;42.662;23.260;2023-03-22T07:25:11;93899.22;;;12.34;69.17
20009;BME280;10165;42.662;23.260;2023-03-22T07:27:39;93899.81;;;12.47;67.73
20009;BME280;10165;42.662;23.260;2023-03-22T07:30:06;93907.31;;;11.70;69.30
20009;BME280;10165;42.662;23.260;2023-03-22T07:32:35;93901.16;;;11.46;72.48
20009;BME280;10165;42.662;23.260;2023-03-22T07:35:02;93909.81;;;12.01;70.33
20009;BME280;10165;42.662;23.260;2023-03-22T07:37:28;93913.09;;;12.40;67.99
20009;BME280;10165;42.662;23.260;2023-03-22T07:39:55;93916.97;;;12.42;66.41
20009;BME280;10165;42.662;23.260;2023-03-22T07:42:22;93919.38;;;12.51;66.89
20009;BME280;10165;42.662;23.260;2023-03-22T07:44:49;93918.25;;;12.52;67.65
20009;BME280;10165;42.662;23.260;2023-03-22T07:47:16;93916.97;;;12.42;68.33
20009;BME280;10165;42.662;23.260;2023-03-22T07:49:56;93920.44;;;11.97;69.55
20009;BME280;10165;42.662;23.260;2023-03-22T07:52:22;93922.34;;;11.74;70.44
20009;BME280;10165;42.662;23.260;2023-03-22T07:54:49;93919.25;;;11.72;70.68
20009;BME280;10165;42.662;23.260;2023-03-22T07:57:16;93922.47;;;11.62;70.72
20009;BME280;10165;42.662;23.260;2023-03-22T07:59:45;93924.34;;;11.20;72.11
20009;BME280;10165;42.662;23.260;2023-03-22T08:02:12;93924.56;;;11.49;71.37
20009;BME280;10165;42.662;23.260;2023-03-22T08:04:39;93926.69;;;11.82;71.41
20009;BME280;10165;42.662;23.260;2023-03-22T08:07:06;93930.31;;;11.93;70.34
20009;BME280;10165;42.662;23.260;2023-03-22T08:09:36;93917.88;;;12.05;69.45
20009;BME280;10165;42.662;23.260;2023-03-22T08:12:03;93925.63;;;12.10;70.33
20009;BME280;10165;42.662;23.260;2023-03-22T08:14:30;93924.81;;;12.06;71.02
20009;BME280;10165;42.662;23.260;2023-03-22T08:17:05;93923.63;;;12.03;71.45
20009;BME280;10165;42.662;23.260;2023-03-22T08:19:33;93925.34;;;12.15;70.38
20009;BME280;10165;42.662;23.260;2023-03-22T08:22:00;93929.44;;;12.09;70.60
20009;BME280;10165;42.662;23.260;2023-03-22T08:24:26;93915.75;;;12.14;70.98
20009;BME280;10165;42.662;23.260;2023-03-22T08:26:53;93930.13;;;12.28;70.41
20009;BME280;10165;42.662;23.260;2023-03-22T08:29:20;93928.59;;;12.27;70.04
20009;BME280;10165;42.662;23.260;2023-03-22T08:31:49;93937.16;;;12.14;68.85
20009;BME280;10165;42.662;23.260;2023-03-22T08:34:16;93928.63;;;12.31;69.06
20009;BME280;10165;42.662;23.260;2023-03-22T08:36:42;93926.81;;;12.61;68.36
20009;BME280;10165;42.662;23.260;2023-03-22T08:39:09;93931.34;;;12.57;68.82
20009;BME280;10165;42.662;23.260;2023-03-22T08:41:36;93926.44;;;12.63;68.66
20009;BME280;10165;42.662;23.260;2023-03-22T08:44:02;93935.50;;;12.28;69.00
20009;BME280;10165;42.662;23.260;2023-03-22T08:46:29;93941.84;;;12.43;69.08
20009;BME280;10165;42.662;23.260;2023-03-22T08:48:56;93946.03;;;11.95;71.07
20009;BME280;10165;42.662;23.260;2023-03-22T08:51:25;93941.63;;;11.83;72.62
20009;BME280;10165;42.662;23.260;2023-03-22T08:53:52;93944.53;;;11.75;72.59
20009;BME280;10165;42.662;23.260;2023-03-22T08:56:19;93945.22;;;11.52;74.12
20009;BME280;10165;42.662;23.260;2023-03-22T08:58:47;93951.22;;;11.27;74.84
20009;BME280;10165;42.662;23.260;2023-03-22T09:01:16;93951.06;;;11.39;75.57
20009;BME280;10165;42.662;23.260;2023-03-22T09:03:43;93943.03;;;11.77;74.06
20009;BME280;10165;42.662;23.260;2023-03-22T09:06:10;93952.88;;;11.54;74.34
20009;BME280;10165;42.662;23.260;2023-03-22T09:08:36;93951.78;;;11.97;73.95
20009;BME280;10165;42.662;23.260;2023-03-22T09:11:06;93956.91;;;11.64;74.51
20009;BME280;10165;42.662;23.260;2023-03-22T09:13:33;93959.03;;;11.35;75.54
20009;BME280;10165;42.662;23.260;2023-03-22T09:16:00;93953.31;;;11.75;74.32
20009;BME280;10165;42.662;23.260;2023-03-22T09:18:27;93952.22;;;11.76;74.10
20009;BME280;10165;42.662;23.260;2023-03-22T09:20:54;93952.41;;;12.10;73.27
20009;BME280;10165;42.662;23.260;2023-03-22T09:23:21;93954.63;;;11.85;73.75
20009;BME280;10165;42.662;23.260;2023-03-22T09:25:47;93954.25;;;12.06;73.25
20009;BME280;10165;42.662;23.260;2023-03-22T09:28:14;93952.75;;;12.08;73.29
20009;BME280;10165;42.662;23.260;2023-03-22T09:30:42;93950.19;;;12.15;73.27
20009;BME280;10165;42.662;23.260;2023-03-22T09:33:10;93952.56;;;11.97;72.61
20009;BME280;10165;42.662;23.260;2023-03-22T09:35:40;93946.31;;;12.13;72.20
20009;BME280;10165;42.662;23.260;2023-03-22T09:38:09;93952.56;;;11.97;72.31
20009;BME280;10165;42.662;23.260;2023-03-22T09:40:39;93952.13;;;12.15;72.17
20009;BME280;10165;42.662;23.260;2023-03-22T09:43:10;93952.75;;;12.31;71.60
20009;BME280;10165;42.662;23.260;2023-03-22T09:45:46;93948.31;;;12.42;71.40
20009;BME280;10165;42.662;23.260;2023-03-22T09:48:23;93951.13;;;12.49;70.99
20009;BME280;10165;42.662;23.260;2023-03-22T09:50:53;93951.97;;;12.79;70.51
20009;BME280;10165;42.662;23.260;2023-03-22T09:53:24;93953.03;;;12.49;70.42
20009;BME280;10165;42.662;23.260;2023-03-22T10:01:17;93949.50;;;12.67;70.92
20009;BME280;10165;42.662;23.260;2023-03-22T10:04:42;93960.00;;;12.53;70.70
20009;BME280;10165;42.662;23.260;2023-03-22T10:12:28;93963.22;;;12.17;71.37
20009;BME280;10165;42.662;23.260;2023-03-22T10:15:03;93959.91;;;12.50;70.42
20009;BME280;10165;42.662;23.260;2023-03-22T10:17:31;93965.19;;;12.69;69.43
20009;BME280;10165;42.662;23.260;2023-03-22T10:22:51;93957.00;;;12.84;69.22
20009;BME280;10165;42.662;23.260;2023-03-22T10:25:27;93960.16;;;12.64;68.85
20009;BME280;10165;42.662;23.260;2023-03-22T10:27:56;93963.19;;;12.88;68.35
20009;BME280;10165;42.662;23.260;2023-03-22T10:30:26;93965.13;;;12.65;68.55
20009;BME280;10165;42.662;23.260;2023-03-22T10:33:03;93970.09;;;12.89;68.16
20009;BME280;10165;42.662;23.260;2023-03-22T10:35:40;93967.66;;;12.81;67.99
20009;BME280;10165;42.662;23.260;2023-03-22T10:38:25;93968.81;;;13.06;67.54
20009;BME280;10165;42.662;23.260;2023-03-22T10:40:56;93958.34;;;13.24;66.60
20009;BME280;10165;42.662;23.260;2023-03-22T10:43:37;93961.28;;;13.15;65.85
20009;BME280;10165;42.662;23.260;2023-03-22T10:46:09;93963.34;;;12.99;67.48
20009;BME280;10165;42.662;23.260;2023-03-22T10:48:43;93963.03;;;13.04;66.62
20009;BME280;10165;42.662;23.260;2023-03-22T10:51:25;93964.63;;;13.09;66.55
20009;BME280;10165;42.662;23.260;2023-03-22T10:53:54;93966.09;;;13.03;66.41
20009;BME280;10165;42.662;23.260;2023-03-22T10:56:23;93960.16;;;13.16;66.03
20009;BME280;10165;42.662;23.260;2023-03-22T10:58:51;93958.47;;;13.08;68.22
20009;BME280;10165;42.662;23.260;2023-03-22T11:01:25;93964.47;;;12.98;67.84
20009;BME280;10165;42.662;23.260;2023-03-22T11:03:58;93966.03;;;12.73;68.15
20009;BME280;10165;42.662;23.260;2023-03-22T11:06:32;93959.34;;;12.86;67.69
20009;BME280;10165;42.662;23.260;2023-03-22T11:09:31;93958.47;;;12.78;68.49
20009;BME280;10165;42.662;23.260;2023-03-22T11:11:58;93962.88;;;12.93;68.12
20009;BME280;10165;42.662;23.260;2023-03-22T11:14:31;93962.16;;;12.97;67.49
20009;BME280;10165;42.662;23.260;2023-03-22T11:19:35;93958.16;;;12.83;68.64
20009;BME280;10165;42.662;23.260;2023-03-22T11:22:05;93959.84;;;12.69;69.68
20009;BME280;10165;42.662;23.260;2023-03-22T11:24:33;93953.09;;;12.78;69.78
20009;BME280;10165;42.662;23.260;2023-03-22T11:27:03;93956.56;;;12.79;70.99
20009;BME280;10165;42.662;23.260;2023-03-22T11:29:42;93962.06;;;12.63;71.37
20009;BME280;10165;42.662;23.260;2023-03-22T11:35:04;93945.69;;;12.68;70.18
20009;BME280;10165;42.662;23.260;2023-03-22T11:37:49;93950.47;;;12.56;70.14
20009;BME280;10165;42.662;23.260;2023-03-22T11:42:51;93953.88;;;12.53;71.27
20009;BME280;10165;42.662;23.260;2023-03-22T11:45:33;93951.31;;;12.37;70.94
20009;BME280;10165;42.662;23.260;2023-03-22T11:48:04;93954.06;;;12.18;71.25
20009;BME280;10165;42.662;23.260;2023-03-22T11:50:35;93945.72;;;12.23;71.81
20009;BME280;10165;42.662;23.260;2023-03-22T11:53:04;93946.06;;;12.44;71.32
20009;BME280;10165;42.662;23.260;2023-03-22T11:55:34;93937.09;;;12.33;71.24
20009;BME280;10165;42.662;23.260;2023-03-22T11:58:03;93947.97;;;12.70;70.54
20009;BME280;10165;42.662;23.260;2023-03-22T12:00:32;93938.00;;;12.67;69.97
20009;BME280;10165;42.662;23.260;2023-03-22T12:03:05;93945.78;;;12.49;71.59
20009;BME280;10165;42.662;23.260;2023-03-22T12:05:40;93948.56;;;12.56;71.91
20009;BME280;10165;42.662;23.260;2023-03-22T12:11:13;93941.75;;;12.62;70.38
20009;BME280;10165;42.662;23.260;2023-03-22T12:13:56;93938.25;;;12.58;70.88
20009;BME280;10165;42.662;23.260;2023-03-22T12:16:28;93942.16;;;12.90;70.83
20009;BME280;10165;42.662;23.260;2023-03-22T12:19:18;93941.66;;;12.81;71.03
20009;BME280;10165;42.662;23.260;2023-03-22T12:21:48;93940.66;;;12.93;70.32
20009;BME280;10165;42.662;23.260;2023-03-22T12:24:34;93940.78;;;12.74;70.08
20009;BME280;10165;42.662;23.260;2023-03-22T12:27:20;93936.38;;;12.88;69.84
20009;BME280;10165;42.662;23.260;2023-03-22T12:30:19;93940.31;;;12.94;70.60
20009;BME280;10165;42.662;23.260;2023-03-22T12:32:51;93931.44;;;13.17;71.32
20009;BME280;10165;42.662;23.260;2023-03-22T12:35:29;93935.34;;;12.97;69.45
20009;BME280;10165;42.662;23.260;2023-03-22T12:37:58;93942.59;;;13.22;69.50
20009;BME280;10165;42.662;23.260;2023-03-22T12:40:31;93929.50;;;13.47;69.25
20009;BME280;10165;42.662;23.260;2023-03-22T12:45:45;93923.78;;;12.63;69.74
20009;BME280;10165;42.662;23.260;2023-03-22T12:50:48;93930.38;;;13.58;66.22
20009;BME280;10165;42.662;23.260;2023-03-22T12:53:17;93932.66;;;13.56;67.80
20009;BME280;10165;42.662;23.260;2023-03-22T12:55:46;93934.94;;;13.21;66.93
20009;BME280;10165;42.662;23.260;2023-03-22T12:58:20;93935.53;;;13.37;65.90
20009;BME280;10165;42.662;23.260;2023-03-22T13:00:52;93934.78;;;13.40;65.67
20009;BME280;10165;42.662;23.260;2023-03-22T13:03:46;93932.41;;;13.35;66.05
20009;BME280;10165;42.662;23.260;2023-03-22T13:11:28;93928.84;;;13.24;64.44
20009;BME280;10165;42.662;23.260;2023-03-22T13:13:55;93923.84;;;13.56;63.87
20009;BME280;10165;42.662;23.260;2023-03-22T13:16:22;93926.50;;;13.52;65.25
20009;BME280;10165;42.662;23.260;2023-03-22T13:21:27;93917.94;;;13.80;63.43
20009;BME280;10165;42.662;23.260;2023-03-22T13:26:50;93922.16;;;13.40;64.69
20009;BME280;10165;42.662;23.260;2023-03-22T13:29:23;93925.09;;;13.32;62.79
20009;BME280;10165;42.662;23.260;2023-03-22T13:32:03;93922.34;;;13.25;64.52
20009;BME280;10165;42.662;23.260;2023-03-22T13:34:38;93919.88;;;13.13;64.48
20009;BME280;10165;42.662;23.260;2023-03-22T13:37:28;93911.56;;;12.91;64.46
20009;BME280;10165;42.662;23.260;2023-03-22T13:39:57;93919.38;;;12.25;67.75
20009;BME280;10165;42.662;23.260;2023-03-22T13:42:35;93920.25;;;12.32;67.37
20009;BME280;10165;42.662;23.260;2023-03-22T13:45:02;93925.97;;;12.08;67.55
20009;BME280;10165;42.662;23.260;2023-03-22T13:47:43;93924.16;;;13.17;63.87
20009;BME280;10165;42.662;23.260;2023-03-22T13:50:22;93931.13;;;13.55;62.19
20009;BME280;10165;42.662;23.260;2023-03-22T13:52:58;93929.38;;;13.73;61.86
20009;BME280;10165;42.662;23.260;2023-03-22T13:55:41;93924.75;;;14.11;60.80
20009;BME280;10165;42.662;23.260;2023-03-22T13:58:48;93930.91;;;13.71;60.67
20009;BME280;10165;42.662;23.260;2023-03-22T14:01:23;93925.91;;;13.69;62.19
20009;BME280;10165;42.662;23.260;2023-03-22T14:03:57;93927.91;;;12.83;65.37
20009;BME280;10165;42.662;23.260;2023-03-22T14:06:32;93926.84;;;13.17;64.25
20009;BME280;10165;42.662;23.260;2023-03-22T14:09:10;93923.72;;;12.59;65.30
20009;BME280;10165;42.662;23.260;2023-03-22T14:11:45;93917.09;;;13.06;65.14
20009;BME280;10165;42.662;23.260;2023-03-22T14:14:22;93924.28;;;13.28;61.68
20009;BME280;10165;42.662;23.260;2023-03-22T14:17:17;93925.25;;;13.46;61.42
20009;BME280;10165;42.662;23.260;2023-03-22T14:19:41;93923.13;;;11.75;67.55
20009;BME280;10165;42.662;23.260;2023-03-22T14:22:22;93926.47;;;11.91;68.07
20009;BME280;10165;42.662;23.260;2023-03-22T14:24:54;93930.81;;;11.57;67.45
20009;BME280;10165;42.662;23.260;2023-03-22T14:27:21;93935.16;;;12.82;66.25
20009;BME280;10165;42.662;23.260;2023-03-22T14:29:47;93924.22;;;12.42;66.69
20009;BME280;10165;42.662;23.260;2023-03-22T14:32:26;93924.66;;;12.44;66.26
20009;BME280;10165;42.662;23.260;2023-03-22T14:35:07;93923.16;;;13.29;65.02
20009;BME280;10165;42.662;23.260;2023-03-22T14:37:36;93929.63;;;13.61;63.45